»·PEaware :: N5513L KSBA-KBUR

N5513L :: KSBA-KBUR

FLIGHT INFORMATION

Flight Status: Arrived
Operator: Privately registered:
United States
More flights under this callsign
Pilot: Jose F. (32352)
Aircraft: CESSNA 152 AEROBAT
(C152)
More flights by this aircraft type
Origin: KSBA Santa Barbara Mun
United States
Destination: KBUR Bob Hope-Burbank
United States
More flights between these airports :: More routes between these airports
Route: SBA FIM BUR
File this flight plan on PilotEdge
Remarks:
Altitude:
(Current/Filed)
7,500ft
Speed:
(Current/Filed)
95kts
Departed: 18-Nov-20 05:30 PM
Arrived: 18-Nov-20 06:21 PM
Distance/Time
Traveled:
6854nm/0:50
Distance/Time
To Go:
Arrived

Flight Plot

Page will automatically refresh every two minutes.

Flight plan parsing failed; only flown route is shown


Map Options




Map Legend


Flown Route
Filed Route
Departure Airport
Arrival Airport
Navaid (VOR, NDB)
Fix

Horizontal Profiles

Position Reports

Time Latitude Longitude Heading Altitude Ground
Speed
18-Nov-20 17:20 34.429011 -119.845186 333 14ft 0kts
18-Nov-20 17:21 34.429011 -119.845186 333 14ft 0kts
18-Nov-20 17:22 34.429011 -119.845186 333 14ft 0kts
18-Nov-20 17:23 34.429011 -119.845186 333 14ft 0kts
18-Nov-20 17:24 34.429011 -119.845186 333 14ft 0kts
18-Nov-20 17:25 34.429011 -119.845186 333 14ft 0kts
18-Nov-20 17:26 34.428959 -119.845278 199 14ft 5kts
18-Nov-20 17:27 34.429872 -119.842010 61 13ft 0kts
18-Nov-20 17:28 34.429872 -119.842010 61 13ft 0kts
18-Nov-20 17:29 34.427340 -119.840540 157 15ft 59kts
18-Nov-20 17:30 34.406302 -119.833038 166 626ft 77kts
18-Nov-20 17:31 34.385203 -119.824336 160 1296ft 81kts
18-Nov-20 17:32 34.370338 -119.806207 76 1801ft 92kts
18-Nov-20 17:33 34.385454 -119.784535 41 2469ft 84kts
18-Nov-20 17:34 34.401561 -119.763188 55 3067ft 87kts
18-Nov-20 17:35 34.410604 -119.736066 74 3641ft 87kts
18-Nov-20 17:36 34.415558 -119.707070 86 4185ft 88kts
18-Nov-20 17:37 34.415962 -119.677239 89 4718ft 88kts
18-Nov-20 17:38 34.415488 -119.647413 92 5225ft 89kts
18-Nov-20 17:39 34.411767 -119.617689 102 5715ft 88kts
18-Nov-20 17:40 34.407423 -119.588198 94 6175ft 89kts
18-Nov-20 17:41 34.409750 -119.558171 80 6611ft 90kts
18-Nov-20 17:42 34.413524 -119.528073 85 7040ft 90kts
18-Nov-20 17:43 34.412983 -119.497387 94 7393ft 94kts
18-Nov-20 17:44 34.408866 -119.464114 100 7450ft 101kts
18-Nov-20 17:45 34.404602 -119.430314 99 7448ft 101kts
18-Nov-20 17:46 34.399279 -119.396904 95 7457ft 100kts
18-Nov-20 17:47 34.396117 -119.363411 101 7467ft 100kts
18-Nov-20 17:48 34.394064 -119.329658 91 7468ft 100kts
18-Nov-20 17:49 34.392001 -119.295989 96 7483ft 100kts
18-Nov-20 17:50 34.387892 -119.262596 100 7506ft 100kts
18-Nov-20 17:51 34.384087 -119.229091 101 7516ft 100kts
18-Nov-20 17:52 34.379799 -119.195598 99 7510ft 100kts
18-Nov-20 17:53 34.376653 -119.162007 96 7502ft 100kts
18-Nov-20 17:54 34.374554 -119.128352 91 7490ft 100kts
18-Nov-20 17:55 34.372305 -119.094745 97 7490ft 100kts
18-Nov-20 17:56 34.368489 -119.061245 96 7484ft 100kts
18-Nov-20 17:57 34.364975 -119.027669 95 7482ft 100kts
18-Nov-20 17:58 34.361972 -118.994136 98 7484ft 100kts
18-Nov-20 17:59 34.358087 -118.960735 99 7493ft 100kts
18-Nov-20 18:00 34.353430 -118.927414 103 7514ft 100kts
18-Nov-20 18:01 34.346774 -118.894721 100 7522ft 100kts
18-Nov-20 18:02 34.340884 -118.861735 103 7524ft 100kts
18-Nov-20 18:03 34.333812 -118.829059 108 7521ft 100kts
18-Nov-20 18:04 34.325064 -118.797115 101 7503ft 100kts
18-Nov-20 18:05 34.317425 -118.764629 109 7488ft 100kts
18-Nov-20 18:06 34.307706 -118.733082 109 7471ft 99kts
18-Nov-20 18:07 34.298931 -118.701163 107 7456ft 100kts
18-Nov-20 18:08 34.290835 -118.668933 109 7381ft 101kts
18-Nov-20 18:09 34.282545 -118.637152 107 7022ft 101kts
18-Nov-20 18:10 34.273874 -118.604814 111 6400ft 100kts
18-Nov-20 18:11 34.264247 -118.573340 114 5618ft 100kts
18-Nov-20 18:12 34.256114 -118.541697 107 4859ft 97kts
18-Nov-20 18:13 34.247326 -118.511484 112 4213ft 94kts
18-Nov-20 18:14 34.238029 -118.482153 110 3605ft 92kts
18-Nov-20 18:15 34.233469 -118.452322 87 3040ft 90kts
18-Nov-20 18:16 34.235902 -118.422656 86 2699ft 86kts
18-Nov-20 18:17 34.235615 -118.393928 89 2179ft 78kts
18-Nov-20 18:18 34.234498 -118.368216 125 1744ft 75kts
18-Nov-20 18:19 34.216505 -118.361531 170 1080ft 68kts
18-Nov-20 18:20 34.202866 -118.358493 256 728ft 14kts
18-Nov-20 18:22 34.202699 -118.358927 191 728ft 7kts
18-Nov-20 18:23 34.199531 -118.359592 184 717ft 0kts
18-Nov-20 18:24 34.199513 -118.359599 186 717ft 0kts
18-Nov-20 18:25 0.000000 0.000000 0 0ft 0kts

Navigation Log

Ident Type
Flight plan parsing failed, navigation log unavailable